• Join FlightAware (Why Join?)
  • Login
  • US Flag 
03:36PM EDT


 

Airport Tracker/Info


-or-


 

Live Flight TrackerFlight Track Log ✈ DAL268 ✈ 29-Apr-2013 ✈ KJFK - LLBG / TLV

Flight Track Log - Related Links

Times and Time Zones

All times are in EDT time to prevent confusion due to time zone crossing. See the DAL268 flight status page for this flight to view local times or setup timezone preferences in your user account.

Time Position Orientation Groundspeed Altitude Reporting Facility
EDT Latitude Longitude Course Direction KTS MPH feet Rate Location/Type
11:46PM 40.6070 -73.7630 119° Southeast 180 207 700  Level FlightAware
11:46PM 40.6060 -73.7480 95° East 183 211 1,100 1,020 Climbing FlightAware
11:46PM 40.6050 -73.7190 93° East 211 243 1,400 900 Climbing FlightAware
11:47PM 40.6040 -73.6990 94° East 222 255 1,700 900 Climbing FlightAware
11:47PM 40.6080 -73.6620 82° East 248 285 2,000 900 Climbing FlightAware
11:47PM 40.6170 -73.6410 61° Northeast 259 298 2,300 1,200 Climbing FlightAware
11:48PM 40.6430 -73.6070 45° Northeast 283 326 2,900 1,500 Climbing FlightAware
11:48PM 40.6720 -73.5700 44° Northeast 293 337 3,800 2,040 Climbing FlightAware
11:49PM 40.6960 -73.5400 43° Northeast 294 338 4,800 2,040 Climbing FlightAware
11:49PM 40.7270 -73.5020 43° Northeast 306 352 5,700 2,040 Climbing FlightAware
11:50PM 40.7560 -73.4710 39° Northeast 306 352 6,700 2,220 Climbing FlightAware
11:50PM 40.7730 -73.4580 30° Northeast 311 358 7,200 1,980 Climbing FlightAware
11:50PM 40.8130 -73.4360 23° Northeast 313 360 8,200 1,920 Climbing FlightAware
11:51PM 40.8480 -73.4180 21° North 319 367 9,000 1,800 Climbing FlightAware
11:51PM 40.9100 -73.3880 47° Northeast 332 382 10,300 1,320 Climbing FlightAware
11:52PM 40.9720 -73.3550 22° Northeast 361 415 10,900 900 Climbing FlightAware
11:53PM 41.0440 -73.3170 22° Northeast 393 452 11,600 1,200 Climbing FlightAware
11:54PM 41.1120 -73.2810 22° Northeast 406 467 12,600 1,620 Climbing FlightAware
11:54PM 41.1780 -73.2370 27° Northeast 416 479 13,800 1,800 Climbing FlightAware
11:54PM 41.2040 -73.2090 39° Northeast 420 483 14,300 1,980 Climbing FlightAware
11:55PM 41.2620 -73.1210 49° Northeast 426 490 15,800 1,800 Climbing FlightAware
11:56PM 41.3120 -73.0430 50° Northeast 436 502 16,900 840 Climbing FlightAware
11:56PM 41.3540 -72.9800 48° Northeast 436 502 16,900 1,080 Level FlightAware
11:57PM 41.4190 -72.8790 49° Northeast 448 516 18,400 1,020 Climbing FlightAware
11:58PM 41.4650 -72.8080 49° Northeast 448 516 18,400  Level FlightAware
11:59PM 41.5110 -72.7370 49° Northeast 448 516 18,400  Level FlightAware
11:59PM 41.5690 -72.6480 49° Northeast 448 516 18,400  Level FlightAware
12:00AM 41.6150 -72.5770 49° Northeast 448 516 18,400 3,600 Level FlightAware
12:01AM 41.6670 -72.5810 357° North 23,700 6,180 Climbing FlightAware
12:01AM 41.7560 -72.4800 40° Northeast 488 562 24,100 1,080 Climbing FlightAware
12:02AM 41.8540 -72.3690 40° Northeast 495 570 25,000 1,020 Climbing FlightAware
12:03AM 42.0000 -72.2010 41° Northeast 26,400 1,020 Climbing FlightAware
12:04AM 42.0890 -72.1000 40° Northeast 506 582 27,100 1,020 Climbing FlightAware
12:04AM 42.1610 -72.0180 40° Northeast 510 587 28,000 1,320 Climbing FlightAware
12:05AM 42.2430 -71.9240 40° Northeast 508 585 29,000 1,260 Climbing FlightAware
12:06AM 42.3150 -71.8410 40° Northeast 506 582 29,800 1,200 Climbing FlightAware
12:07AM 42.3970 -71.7470 40° Northeast 497 572 30,700 840 Climbing FlightAware
12:07AM 42.4790 -71.6310 46° Northeast 500 575 31,000 180 Climbing FlightAware
12:08AM 42.5480 -71.5490 41° Northeast 499 574 31,000  Level FlightAware
12:09AM 42.6270 -71.4560 41° Northeast 499 574 31,000  Level FlightAware
12:09AM 42.6990 -71.3690 42° Northeast 502 578 31,000  Level FlightAware
12:10AM 42.7770 -71.2760 41° Northeast 503 579 31,000  Level FlightAware
12:11AM 42.8480 -71.1920 41° Northeast 510 587 31,000  Level FlightAware
12:11AM 42.9190 -71.1070 41° Northeast 510 587 31,000  Level FlightAware
12:12AM 42.9950 -71.0140 42° Northeast 511 588 31,000  Level FlightAware
12:13AM 43.0700 -70.9240 41° Northeast 504 580 31,000  Level FlightAware
12:14AM 43.1460 -70.8320 41° Northeast 505 581 31,000  Level FlightAware
12:14AM 43.2190 -70.7440 41° Northeast 505 581 31,000  Level FlightAware
12:15AM 43.2910 -70.6560 42° Northeast 505 581 31,000  Level FlightAware
12:16AM 43.3700 -70.5580 42° Northeast 505 581 31,000  Level FlightAware
12:16AM 43.4400 -70.4720 42° Northeast 504 580 31,000  Level FlightAware
12:17AM 43.5090 -70.3870 42° Northeast 503 579 31,000  Level FlightAware
12:18AM 43.5910 -70.2850 42° Northeast 508 585 31,000  Level FlightAware
12:18AM 43.6590 -70.2010 42° Northeast 507 583 31,000  Level FlightAware
12:19AM 43.7390 -70.1020 42° Northeast 503 579 31,000  Level FlightAware
12:20AM 43.8100 -70.0130 42° Northeast 498 573 31,000  Level FlightAware
12:21AM 43.8840 -69.9190 42° Northeast 497 572 31,000  Level FlightAware
12:21AM 43.9500 -69.8340 43° Northeast 497 572 31,000  Level FlightAware
12:22AM 44.0180 -69.7460 43° Northeast 496 571 31,000  Level FlightAware
12:23AM 44.0960 -69.6460 43° Northeast 496 571 31,000  Level FlightAware
12:23AM 44.1650 -69.5580 42° Northeast 495 570 31,000  Level FlightAware
12:24AM 44.2310 -69.4730 43° Northeast 494 568 31,000  Level FlightAware
12:25AM 44.3050 -69.3790 42° Northeast 493 567 31,000  Level FlightAware
12:26AM 44.3960 -69.2610 43° Northeast 491 565 31,000  Level FlightAware
12:26AM 44.4730 -69.1610 43° Northeast 490 564 31,000  Level FlightAware
12:27AM 44.5400 -69.0730 43° Northeast 490 564 31,000  Level FlightAware
12:28AM 44.6030 -68.9890 43° Northeast 490 564 31,000  Level FlightAware
12:29AM 44.6800 -68.8880 43° Northeast 492 566 31,000  Level FlightAware
12:29AM 44.7450 -68.8010 44° Northeast 491 565 31,000  Level FlightAware
12:30AM 44.8200 -68.7030 43° Northeast 491 565 31,000  Level FlightAware
12:31AM 44.8850 -68.6180 43° Northeast 491 565 31,000  Level FlightAware
12:31AM 44.9550 -68.5270 43° Northeast 490 564 31,000  Level FlightAware
12:32AM 45.0300 -68.4290 43° Northeast 491 565 31,000  Level FlightAware
12:33AM 45.1020 -68.3340 43° Northeast 492 566 31,000  Level FlightAware
12:33AM 45.1700 -68.2440 43° Northeast 491 565 31,000  Level FlightAware
12:34AM 45.2380 -68.1530 43° Northeast 492 566 31,000  Level FlightAware
12:35AM 45.3310 -68.0290 43° Northeast 493 567 31,000  Level FlightAware
12:36AM 45.3980 -67.9390 43° Northeast 488 562 31,000  Level FlightAware
12:36AM 45.4630 -67.8500 44° Northeast 491 565 31,000  Level FlightAware
12:37AM 45.5380 -67.7490 43° Northeast 491 565 31,000  Level FlightAware
12:38AM 45.6060 -67.6580 43° Northeast 491 565 31,000  Level FlightAware
12:39AM 45.6800 -67.5570 44° Northeast 495 570 31,000  Level FlightAware
12:39AM 45.7470 -67.4650 44° Northeast 495 570 31,000  Level FlightAware
12:40AM 45.8130 -67.3740 44° Northeast 495 570 31,000  Level FlightAware
12:41AM 45.8880 -67.2710 44° Northeast 495 570 31,000  Level FlightAware
12:41AM 45.9530 -67.1800 44° Northeast 493 567 31,000  Level FlightAware
12:42AM 46.0270 -67.0790 43° Northeast 492 566 31,000  Level FlightAware
12:43AM 46.0950 -66.9850 44° Northeast 492 566 31,000  Level FlightAware
12:43AM 46.1430 -66.9180 44° Northeast 492 566 31,000  Level FlightAware
12:44AM 46.2490 -66.7700 44° Northeast 491 565 31,000  Level FlightAware
12:45AM 46.3040 -66.6920 44° Northeast 491 565 31,000  Level FlightAware
12:46AM 46.3600 -66.6150 43° Northeast 491 565 31,000  Level FlightAware
12:47AM 46.4290 -66.5170 44° Northeast 491 565 31,000  Level FlightAware
12:47AM 46.4850 -66.4390 44° Northeast 491 565 31,000  Level FlightAware
12:48AM 46.5400 -66.3610 44° Northeast 491 565 31,000  Level FlightAware
12:49AM 46.5960 -66.2830 44° Northeast 491 565 31,000  Level FlightAware
12:49AM 46.6510 -66.2050 44° Northeast 491 565 31,000  Level FlightAware
12:50AM 46.7210 -66.1080 44° Northeast 491 565 31,000  Level FlightAware
12:51AM 46.7760 -66.0290 45° Northeast 491 565 31,000  Level FlightAware
12:51AM 46.8320 -65.9510 44° Northeast 491 565 31,000  Level FlightAware
12:52AM 46.8880 -65.8720 44° Northeast 491 565 31,000  Level FlightAware
12:53AM 46.9430 -65.7940 44° Northeast 491 565 31,000  Level FlightAware
12:54AM 47.0130 -65.6960 44° Northeast 491 565 31,000  Level FlightAware
12:54AM 47.1833 -65.4500 44° Northeast 480 552 31,000  Level Moncton Center
12:55AM 47.2833 -65.3167 42° Northeast 480 552 31,000  Level Moncton Center
12:56AM 47.3667 -65.1667 51° Northeast 490 564 31,000  Level Moncton Center
12:57AM 47.4667 -65.0333 42° Northeast 490 564 31,000  Level Moncton Center
12:58AM 47.5667 -64.8667 48° Northeast 480 552 31,000  Level Moncton Center
12:59AM 47.6500 -64.7500 43° Northeast 480 552 31,000  Level Moncton Center
01:00AM 47.7500 -64.6000 45° Northeast 490 564 31,000  Level Moncton Center
01:01AM 47.8333 -64.4500 50° Northeast 490 564 31,000  Level Moncton Center
01:02AM 47.9333 -64.3000 45° Northeast 490 564 31,000  Level Moncton Center
01:03AM 48.0333 -64.1500 45° Northeast 480 552 31,000  Level Moncton Center
01:03AM 48.0833 -64.0833 42° Northeast 480 552 31,000  Level Gander Center
01:04AM 48.1667 -63.9333 50° Northeast 470 541 31,000  Level Gander Center
01:05AM 48.2167 -63.8667 42° Northeast 480 552 31,000  Level Moncton Center
01:06AM 48.3000 -63.7167 50° Northeast 480 552 31,000  Level Moncton Center
01:07AM 48.4000 -63.5667 45° Northeast 480 552 31,000  Level Moncton Center
01:08AM 48.4833 -63.4333 47° Northeast 480 552 31,000  Level Moncton Center
01:09AM 48.5833 -63.2833 45° Northeast 480 552 31,000  Level Moncton Center
01:10AM 48.6667 -63.1333 50° Northeast 480 552 31,000  Level Moncton Center
01:10AM 48.7000 -63.0333 63° Northeast 480 552 31,000  Level Gander Center
01:11AM 48.7833 -62.8833 50° Northeast 480 552 31,000  Level Gander Center
01:12AM 48.8500 -62.8167 33° Northeast 500 575 31,000  Level Moncton Center
01:13AM 48.9333 -62.6333 55° Northeast 490 564 31,000  Level Moncton Center
01:13AM 48.9833 -62.5833 33° Northeast 490 564 31,000  Level Gander Center
01:14AM 49.0667 -62.4333 50° Northeast 490 564 31,000  Level Gander Center
01:15AM 49.1000 -62.3333 63° Northeast 490 564 31,000  Level Moncton Center
01:15AM 49.1500 -62.2500 47° Northeast 490 564 31,000  Level Gander Center
01:16AM 49.2333 -62.1000 50° Northeast 490 564 31,000  Level Gander Center
01:17AM 49.2833 -62.0167 47° Northeast 490 564 31,000  Level Moncton Center
01:18AM 49.3667 -61.8500 52° Northeast 480 552 31,000  Level Moncton Center
01:19AM 49.4667 -61.7000 44° Northeast 490 564 31,000  Level Moncton Center
01:19AM 49.5000 -61.6167 58° Northeast 490 564 31,000  Level Gander Center
01:20AM 49.5833 -61.4667 49° Northeast 490 564 31,000  Level Gander Center
01:21AM 49.6667 -61.3000 52° Northeast 480 552 31,000  Level Gander Center
01:22AM 49.7667 -61.1333 47° Northeast 490 564 31,000  Level Gander Center
01:23AM 49.8167 -61.0500 47° Northeast 490 564 31,000  Level Moncton Center
01:24AM 49.8833 -60.8833 58° Northeast 480 552 31,000  Level Moncton Center
01:24AM 49.9333 -60.8167 41° Northeast 490 564 31,000  Level Gander Center
01:25AM 50.0167 -60.6500 52° Northeast 490 564 31,000  Level Gander Center
01:26AM 50.0667 -60.5667 47° Northeast 480 552 31,000  Level Moncton Center
01:27AM 50.1500 -60.4000 52° Northeast 490 564 31,000  Level Moncton Center
01:27AM 50.1833 -60.3167 58° Northeast 490 564 31,000  Level Gander Center
01:28AM 50.2833 -60.1500 47° Northeast 490 564 31,000  Level Gander Center
01:29AM 50.3167 -60.0667 58° Northeast 490 564 31,000  Level Moncton Center
01:30AM 50.4000 -59.9000 52° Northeast 490 564 31,000  Level Moncton Center
01:30AM 50.4500 -59.8167 47° Northeast 490 564 31,000  Level Gander Center
01:31AM 50.5333 -59.6500 52° Northeast 490 564 31,000  Level Gander Center
01:32AM 50.6000 -59.4833 58° Northeast 490 564 31,000  Level Gander Center
01:33AM 50.7000 -59.3333 44° Northeast 490 564 31,000  Level Gander Center
01:34AM 50.7333 -59.2333 62° Northeast 490 564 31,000  Level Moncton Center
01:35AM 50.8333 -59.0500 49° Northeast 490 564 31,000  Level Moncton Center
01:36AM 50.9000 -58.8667 60° Northeast 490 564 31,000  Level Moncton Center
01:36AM 50.9500 -58.8167 32° Northeast 490 564 31,000  Level Gander Center
01:37AM 51.0333 -58.6167 56° Northeast 490 564 31,000  Level Gander Center
01:38AM 51.1167 -58.4500 51° Northeast 490 564 31,000 840 Level Gander Center
01:39AM 51.2000 -58.3000 48° Northeast 480 552 32,700 960 Climbing Gander Center
01:40AM 51.2833 -58.1333 51° Northeast 470 541 33,000 180 Climbing Gander Center
01:41AM 51.3167 -58.0500 57° Northeast 470 541 33,000  Level Moncton Center
01:42AM 51.4000 -57.8667 54° Northeast 470 541 33,000  Level Moncton Center
01:42AM 51.4333 -57.8000 51° Northeast 470 541 33,000  Level Gander Center
01:43AM 51.5167 -57.6333 51° Northeast 470 541 33,000  Level Gander Center
01:44AM 51.6000 -57.4667 51° Northeast 470 541 33,000  Level Gander Center
01:45AM 51.6333 -57.3500 65° Northeast 470 541 33,000  Level Moncton Center
01:46AM 51.7000 -57.2000 54° Northeast 470 541 33,000  Level Moncton Center
01:46AM 51.7500 -57.1167 46° Northeast 470 541 33,000  Level Gander Center
01:47AM 51.8333 -56.9500 51° Northeast 470 541 33,000  Level Gander Center
01:48AM 51.9000 -56.7500 62° Northeast 470 541 33,000  Level Gander Center
01:49AM 51.9333 -56.6833 51° Northeast 470 541 33,000  Level Moncton Center
01:49AM 51.9833 -56.6167 39° Northeast 470 541 33,000  Level Gander Center
01:50AM 52.0667 -56.4167 56° Northeast 470 541 33,000  Level Gander Center
01:51AM 52.1333 -56.2667 54° Northeast 470 541 33,000  Level Gander Center
01:52AM 52.1667 -56.1833 57° Northeast 470 541 33,000  Level Moncton Center
01:53AM 52.2500 -56.0000 53° Northeast 470 541 33,000  Level Moncton Center
01:54AM 52.3167 -55.8167 59° Northeast 470 541 33,000  Level Moncton Center
01:56AM 52.4833 -55.4500 53° Northeast 470 541 33,000  Level Gander Center
01:56AM 52.5167 -55.3667 57° Northeast 470 541 33,000  Level Gander Center
01:57AM 52.5667 -55.2833 45° Northeast 470 541 33,000  Level Moncton Center
01:58AM 52.6333 -55.1167 57° Northeast 470 541 33,000  Level Moncton Center
01:59AM 52.7333 -54.8500 58° Northeast 470 541 33,000  Level Gander Center
02:00AM 52.8167 -54.6667 53° Northeast 470 541 33,000  Level Gander Center
02:01AM 52.8500 -54.6000 50° Northeast 470 541 33,000  Level Gander Center
02:01AM 52.8833 -54.4833 65° Northeast 470 541 33,000  Level Gander Center
02:02AM 52.9667 -54.3000 53° Northeast 480 552 33,000  Level Gander Center
02:03AM 53.0333 -54.1333 56° Northeast 480 552 33,000  Level Gander Center
02:04AM 53.0667 -54.0333 68° East 480 552 33,000  Level Gander Center
02:05AM 53.1199 -53.9186 68° East  Level FlightAware Approximate
02:06AM 53.2000 -53.5167 67° East 480 552 33,000  Level Gander Center
02:07AM 53.0667 -54.0667 67° East 491 565 33,000  Level ETMS Enhanced Traffic Management System
02:07AM 53.0667 -54.0667 67° East 491 565 33,000  Level ETMS Enhanced Traffic Management System
02:07AM 53.2500 -53.3000 67° East 480 552 33,000  Level Gander Center
02:08AM 53.3000 -53.1000 67° East 490 564 33,000  Level Gander Center
02:09AM 53.3500 -52.9000 67° East 480 552 33,000  Level Gander Center
02:10AM 53.3833 -52.6667 76° East 480 552 33,000  Level Gander Center
02:11AM 53.4500 -52.4500 63° Northeast 480 552 33,000  Level Gander Center
02:12AM 53.5000 -52.2500 67° East 480 552 33,000  Level Gander Center
02:13AM 53.5500 -52.0333 69° East 490 564 33,000  Level Gander Center
02:14AM 53.5833 -51.8333 74° East 490 564 33,000  Level Gander Center
02:15AM 53.6500 -51.6167 62° Northeast 490 564 33,000  Level Gander Center
02:16AM 53.6833 -51.4167 74° East 490 564 33,000  Level Gander Center
02:17AM 53.7167 -51.1833 76° East 490 564 33,000  Level Gander Center
02:19AM 53.8333 -50.7500 65° Northeast 490 564 33,000  Level Gander Center
02:20AM 53.8667 -50.5333 75° East 490 564 33,000  Level Gander Center
02:21AM 53.8833 -50.4500 71° East 490 564 33,000  Level Gander Center
02:21AM 53.9167 -50.3167 67° East 490 564 33,000  Level Gander Center
02:23AM 53.9848 -50.0582 66° East  Level FlightAware Approximate
02:24AM 54.0000 -50.0000 67° East 520 598 33,000  Level ETMS Enhanced Traffic Management System
02:30AM 54.3892 -48.4044 68° East 520 598 33,000  Level FlightAware Transoceanic
02:31AM 54.4430 -48.1740 68° East 520 598 33,000  Level FlightAware Transoceanic
02:32AM 54.4964 -47.9431 68° East 520 598 33,000  Level FlightAware Transoceanic
02:33AM 54.5494 -47.7115 69° East 520 598 33,000  Level FlightAware Transoceanic
02:34AM 54.6020 -47.4793 69° East 520 598 33,000  Level FlightAware Transoceanic
02:35AM 54.6540 -47.2465 69° East 520 598 33,000  Level FlightAware Transoceanic
02:36AM 54.7057 -47.0131 69° East 520 598 33,000  Level FlightAware Transoceanic
02:37AM 54.7569 -46.7791 69° East 520 598 33,000  Level FlightAware Transoceanic
02:38AM 54.8076 -46.5446 70° East 520 598 33,000  Level FlightAware Transoceanic
02:39AM 54.8579 -46.3094 70° East 520 598 33,000  Level FlightAware Transoceanic
02:40AM 54.9078 -46.0737 70° East 520 598 33,000  Level FlightAware Transoceanic
02:41AM 54.9571 -45.8374 70° East 520 598 33,000  Level FlightAware Transoceanic
02:42AM 55.0061 -45.6005 70° East 520 598 33,000  Level FlightAware Transoceanic
02:43AM 55.0545 -45.3630 71° East 520 598 33,000  Level FlightAware Transoceanic
02:44AM 55.1025 -45.1250 71° East 520 598 33,000  Level FlightAware Transoceanic
02:45AM 55.1500 -44.8863 71° East 520 598 33,000  Level FlightAware Transoceanic
02:46AM 55.1971 -44.6472 71° East 520 598 33,000  Level FlightAware Transoceanic
02:47AM 55.2437 -44.4074 71° East 520 598 33,000  Level FlightAware Transoceanic
02:48AM 55.2898 -44.1671 71° East 520 598 33,000  Level FlightAware Transoceanic
02:49AM 55.3354 -43.9263 72° East 520 598 33,000  Level FlightAware Transoceanic
02:50AM 55.3806 -43.6848 72° East 520 598 33,000  Level FlightAware Transoceanic
02:51AM 55.4253 -43.4429 72° East 520 598 33,000  Level FlightAware Transoceanic
02:52AM 55.4695 -43.2004 72° East 520 598 33,000  Level FlightAware Transoceanic
02:53AM 55.5133 -42.9573 72° East 520 598 33,000  Level FlightAware Transoceanic
02:54AM 55.5565 -42.7137 73° East 520 598 33,000  Level FlightAware Transoceanic
02:55AM 55.5993 -42.4696 73° East 520 598 33,000  Level FlightAware Transoceanic
02:56AM 55.6416 -42.2250 73° East 520 598 33,000  Level FlightAware Transoceanic
02:57AM 55.6834 -41.9798 73° East 520 598 33,000  Level FlightAware Transoceanic
02:58AM 55.7247 -41.7341 73° East 520 598 33,000  Level FlightAware Transoceanic
02:59AM 55.7655 -41.4879 74° East 520 598 33,000  Level FlightAware Transoceanic
03:00AM 55.8058 -41.2412 74° East 520 598 33,000  Level FlightAware Transoceanic
03:01AM 55.8457 -40.9939 74° East 520 598 33,000  Level FlightAware Transoceanic
03:02AM 55.8850 -40.7462 74° East 520 598 33,000  Level FlightAware Transoceanic
03:03AM 55.9238 -40.4980 75° East 520 598 33,000  Level FlightAware Transoceanic
03:04AM 55.9622 -40.2492 75° East 520 598 33,000  Level FlightAware Transoceanic
03:05AM 55.9985 -40.0097 75° East  Level FlightAware Approximate
03:06AM 56.0344 -39.7697 75° East  Level FlightAware Approximate
03:07AM 56.0090 -39.7723 86° East  Level FlightAware Approximate
03:07AM 56.0000 -40.0000 86° East 558 642 33,000  Level ETMS Enhanced Traffic Management System
03:08AM 56.0184 -39.5244 86° East  Level FlightAware Approximate
03:09AM 56.0272 -39.2765 86° East  Level FlightAware Approximate
03:10AM 56.0355 -39.0284 86° East  Level FlightAware Approximate
03:11AM 56.0434 -38.7802 87° East  Level FlightAware Approximate
03:12AM 56.0508 -38.5319 87° East  Level FlightAware Approximate
03:13AM 56.0576 -38.2836 87° East  Level FlightAware Approximate
03:14AM 56.0759 -37.5033 88° East 558 642 33,000  Level FlightAware Transoceanic
03:15AM 56.0812 -37.2253 88° East 558 642 33,000  Level FlightAware Transoceanic
03:16AM 56.0859 -36.9473 88° East 558 642 33,000  Level FlightAware Transoceanic
03:17AM 56.0899 -36.6693 89° East 558 642 33,000  Level FlightAware Transoceanic
03:18AM 56.0934 -36.3911 89° East 558 642 33,000  Level FlightAware Transoceanic
03:19AM 56.0962 -36.1130 89° East 558 642 33,000  Level FlightAware Transoceanic
03:20AM 56.0984 -35.8348 89° East 558 642 33,000  Level FlightAware Transoceanic
03:21AM 56.0999 -35.5565 90° East 558 642 33,000  Level FlightAware Transoceanic
03:22AM 56.1009 -35.2783 90° East 558 642 33,000  Level FlightAware Transoceanic
03:23AM 56.1012 -35.0000 90° East 558 642 33,000  Level FlightAware Transoceanic
03:24AM 56.1009 -34.7217 90° East 558 642 33,000  Level FlightAware Transoceanic
03:25AM 56.0999 -34.4435 90° East 558 642 33,000  Level FlightAware Transoceanic
03:26AM 56.0984 -34.1652 91° East 558 642 33,000  Level FlightAware Transoceanic
03:27AM 56.0962 -33.8870 91° East 558 642 33,000  Level FlightAware Transoceanic
03:28AM 56.0934 -33.6089 91° East 558 642 33,000  Level FlightAware Transoceanic
03:29AM 56.0899 -33.3307 91° East 558 642 33,000  Level FlightAware Transoceanic
03:30AM 56.0859 -33.0527 92° East 558 642 33,000  Level FlightAware Transoceanic
03:31AM 56.0812 -32.7747 92° East 558 642 33,000  Level FlightAware Transoceanic
03:32AM 56.0759 -32.4967 92° East 558 642 33,000  Level FlightAware Transoceanic
03:33AM 56.0699 -32.2189 92° East 558 642 33,000  Level FlightAware Transoceanic
03:34AM 56.0634 -31.9411 93° East 558 642 33,000  Level FlightAware Transoceanic
03:35AM 56.0562 -31.6634 93° East 558 642 33,000  Level FlightAware Transoceanic
03:36AM 56.0484 -31.3859 93° East 558 642 33,000  Level FlightAware Transoceanic
03:37AM 56.0399 -31.1084 93° East 558 642 33,000  Level FlightAware Transoceanic
03:38AM 56.0309 -30.8311 93° East 558 642 33,000  Level FlightAware Transoceanic
03:39AM 56.0212 -30.5539 94° East 558 642 33,000  Level FlightAware Transoceanic
03:40AM 56.0109 -30.2769 94° East 558 642 33,000  Level FlightAware Transoceanic
03:41AM 56.0012 -30.0291 94° East  Level FlightAware Approximate
03:42AM 55.9909 -29.7815 94° East  Level FlightAware Approximate
03:43AM 55.9890 -29.8112 96° East  Level FlightAware Approximate
03:43AM 56.0000 -30.0000 96° East 574 661 33,000  Level ETMS Enhanced Traffic Management System
03:44AM 55.9741 -29.5644 96° East  Level FlightAware Approximate
03:45AM 55.9588 -29.3178 96° East  Level FlightAware Approximate
03:46AM 55.9429 -29.0714 96° East  Level FlightAware Approximate
03:47AM 55.9266 -28.8252 97° East  Level FlightAware Approximate
03:48AM 55.9098 -28.5793 97° East  Level FlightAware Approximate
03:49AM 55.8488 -27.7368 98° East 574 661 33,000  Level FlightAware Transoceanic
03:50AM 55.8270 -27.4552 98° East 574 661 33,000  Level FlightAware Transoceanic
03:51AM 55.8045 -27.1740 98° East 574 661 33,000  Level FlightAware Transoceanic
03:52AM 55.7814 -26.8930 98° East 574 661 33,000  Level FlightAware Transoceanic
03:53AM 55.7577 -26.6124 99° East 574 661 33,000  Level FlightAware Transoceanic
03:54AM 55.7333 -26.3321 99° East 574 661 33,000  Level FlightAware Transoceanic
03:55AM 55.7083 -26.0522 99° East 574 661 33,000  Level FlightAware Transoceanic
03:56AM 55.6826 -25.7727 99° East 574 661 33,000  Level FlightAware Transoceanic
03:57AM 55.6563 -25.4935 100° East 574 661 33,000  Level FlightAware Transoceanic
03:58AM 55.6294 -25.2148 100° East 574 661 33,000  Level FlightAware Transoceanic
03:59AM 55.6019 -24.9363 100° East 574 661 33,000  Level FlightAware Transoceanic
04:00AM 55.5737 -24.6583 100° East 574 661 33,000  Level FlightAware Transoceanic
04:01AM 55.5449 -24.3807 101° East 574 661 33,000  Level FlightAware Transoceanic
04:02AM 55.5155 -24.1035 101° East 574 661 33,000  Level FlightAware Transoceanic
04:03AM 55.4854 -23.8268 101° East 574 661 33,000  Level FlightAware Transoceanic
04:04AM 55.4547 -23.5504 101° East 574 661 33,000  Level FlightAware Transoceanic
04:05AM 55.4234 -23.2745 101° East 574 661 33,000  Level FlightAware Transoceanic
04:06AM 55.3915 -22.9990 102° East 574 661 33,000  Level FlightAware Transoceanic
04:07AM 55.3590 -22.7240 102° East 574 661 33,000  Level FlightAware Transoceanic
04:08AM 55.3258 -22.4494 102° East 574 661 33,000  Level FlightAware Transoceanic
04:09AM 55.2920 -22.1753 102° East 574 661 33,000  Level FlightAware Transoceanic
04:10AM 55.2577 -21.9017 103° East 574 661 33,000  Level FlightAware Transoceanic
04:11AM 55.2227 -21.6285 103° East 574 661 33,000  Level FlightAware Transoceanic
04:12AM 55.1871 -21.3559 103° East 574 661 33,000  Level FlightAware Transoceanic
04:13AM 55.1509 -21.0837 103° East 574 661 33,000  Level FlightAware Transoceanic
04:14AM 55.1141 -20.8120 103° East 574 661 33,000  Level FlightAware Transoceanic
04:15AM 55.0766 -20.5408 104° East 574 661 33,000  Level FlightAware Transoceanic
04:16AM 55.0386 -20.2701 104° East 574 661 33,000  Level FlightAware Transoceanic
04:17AM 55.0051 -20.0351 104° East  Level FlightAware Approximate
04:18AM 54.9710 -19.8005 104° East  Level FlightAware Approximate
04:19AM 54.9796 -19.8341 102° East  Level FlightAware Approximate
04:20AM 54.9502 -19.5977 102° East  Level FlightAware Approximate
04:21AM 54.9202 -19.3617 102° East  Level FlightAware Approximate
04:22AM 54.8899 -19.1260 103° East  Level FlightAware Approximate
04:23AM 54.8591 -18.8907 103° East  Level FlightAware Approximate
04:24AM 54.8278 -18.6557 103° East  Level FlightAware Approximate
04:25AM 54.7960 -18.4211 103° East  Level FlightAware Approximate
04:26AM 54.7639 -18.1869 103° East  Level FlightAware Approximate
04:27AM 54.7312 -17.9531 103° East  Level FlightAware Approximate
04:28AM 54.6981 -17.7196 104° East  Level FlightAware Approximate
04:29AM 54.6646 -17.4865 104° East  Level FlightAware Approximate
04:30AM 54.6306 -17.2538 104° East  Level FlightAware Approximate
04:31AM 54.5962 -17.0215 104° East  Level FlightAware Approximate
04:32AM 54.5613 -16.7896 104° East  Level FlightAware Approximate
04:33AM 54.5260 -16.5581 105° East  Level FlightAware Approximate
04:34AM 54.4903 -16.3270 105° East  Level FlightAware Approximate
04:35AM 54.4541 -16.0963 105° East  Level FlightAware Approximate
04:36AM 54.4174 -15.8660 105° East  Level FlightAware Approximate
04:37AM 54.3804 -15.6361 105° East  Level FlightAware Approximate
04:38AM 54.3429 -15.4066 106° East  Level FlightAware Approximate
04:39AM 54.3049 -15.1776 106° East  Level FlightAware Approximate
04:40AM 54.2666 -14.9490 106° East  Level FlightAware Approximate
04:41AM 54.2277 -14.7208 106° East  Level FlightAware Approximate
04:41AM 53.7880 -13.8270 106° East 558 642 33,000  Level FlightAware
04:42AM 54.1885 -14.4930 106° East  Level FlightAware Approximate
04:42AM 53.7620 -13.6710 106° East 558 642 33,000  Level FlightAware
04:43AM 53.7640 -13.6790 293° West 558 642 33,000  Level FlightAware
04:44AM 53.6980 -13.2840 106° East 555 639 33,000  Level FlightAware
04:44AM 53.6710 -13.1260 106° East 558 642 33,000  Level FlightAware
04:45AM 53.6480 -12.9910 106° East 556 640 33,000  Level FlightAware
04:45AM 53.6200 -12.8260 106° East 556 640 33,000  Level FlightAware
04:46AM 53.5900 -12.6350 105° East 555 639 33,000  Level FlightAware
04:47AM 53.5650 -12.4660 104° East 557 641 33,000  Level FlightAware
04:48AM 53.5080 -12.0790 103° East 554 638 33,000  Level FlightAware
04:49AM 53.5122 -12.0948 103° East  Level Estimated
04:49AM 53.4790 -11.8950 105° East 553 636 33,000  Level FlightAware
04:50AM 53.4520 -11.7270 105° East 553 636 33,000  Level FlightAware
04:52AM 53.3970 -11.3577 104° East  Level Estimated
04:52AM 53.3770 -11.2970 104° East 553 636 33,000  Level FlightAware
04:52AM 53.3390 -11.0900 107° East 553 636 33,000  Level FlightAware
04:53AM 53.2980 -10.8690 107° East 554 638 33,000  Level FlightAware
04:54AM 53.2700 -10.7220 108° East 551 634 33,000 480 Level FlightAware
04:55AM 53.2270 -10.5010 108° East 548 631 33,800 960 Climbing FlightAware
04:56AM 53.1760 -10.2420 108° East 547 629 35,000 480 Climbing FlightAware
04:57AM 53.1160 -9.9400 108° East 545 627 35,000  Level FlightAware
05:00AM 53.0309 -9.4276 105° East  Level Estimated
05:00AM 52.9770 -9.2620 105° East 550 633 35,000  Level FlightAware
05:01AM 52.9072 -8.9809 105° East 494 568 33,500  Descending FlightAware UK
05:01AM 52.9240 -9.0110 105° East 549 632 35,000  Climbing FlightAware
05:01AM 52.8814 -8.8610 105° East 496 571 33,500 -2,580 Descending FlightAware UK
05:02AM 52.8662 -8.7893 109° East 496 571 33,500 2,340 Level FlightAware UK
05:02AM 52.8770 -8.7860 109° East 552 635 35,000  Climbing FlightAware
05:02AM 52.8364 -8.6451 109° East 496 571 33,500 -2,700 Descending FlightAware UK
05:03AM 52.8216 -8.5730 109° East 496 571 33,500  Level FlightAware UK
05:03AM 52.8067 -8.5010 109° East 496 571 33,500  Level FlightAware UK
05:03AM 52.7916 -8.4293 109° East 494 568 33,500  Level FlightAware UK
05:04AM 52.7764 -8.3572 109° East 492 566 33,500  Level FlightAware UK
05:04AM 52.7613 -8.2857 109° East 494 568 33,500  Level FlightAware UK
05:04AM 52.7463 -8.2141 109° East 494 568 33,500 2,640 Level FlightAware UK
05:04AM 52.7610 -8.2230 109° East 551 634 35,000  Climbing FlightAware
05:05AM 52.7161 -8.0710 109° East 496 571 33,500 -2,400 Descending FlightAware UK
05:05AM 52.7007 -7.9997 110° East 496 571 33,500 4,500 Level FlightAware UK
05:05AM 52.7230 -8.0480 110° East 550 633 35,000  Climbing FlightAware
05:05AM 52.6851 -7.9285 110° East 496 571 33,500 -2,700 Descending FlightAware UK
05:06AM 52.6693 -7.8573 110° East 494 568 33,500 4,680 Level FlightAware UK
05:06AM 52.6960 -7.9220 110° East 551 634 35,000  Climbing FlightAware
05:06AM 52.6536 -7.7864 110° East 494 568 33,500 -2,580 Descending FlightAware UK
05:06AM 52.6378 -7.7154 110° East 494 568 33,500 2,700 Level FlightAware UK
05:06AM 52.6510 -7.7220 110° East 552 635 35,000  Climbing FlightAware
05:07AM 52.6115 -7.5970 110° East 496 571 33,500 -2,760 Descending FlightAware UK
05:07AM 52.5956 -7.5263 110° East 496 571 33,500 3,600 Level FlightAware UK
05:07AM 52.6150 -7.5580 110° East 552 635 35,000  Climbing FlightAware
05:07AM 52.5741 -7.4320 110° East 498 573 33,500 -2,580 Descending FlightAware UK
05:08AM 52.5579 -7.3615 111° Southeast 496 571 33,500 3,180 Level FlightAware UK
05:08AM 52.5750 -7.3820 111° Southeast 551 634 35,000  Climbing FlightAware
05:08AM 52.5309 -7.2441 111° Southeast 498 573 33,500 -2,400 Descending FlightAware UK
05:09AM 52.5146 -7.1738 111° Southeast 496 571 33,500 4,500 Level FlightAware UK
05:09AM 52.5390 -7.2260 111° Southeast 551 634 35,000  Climbing FlightAware
05:09AM 52.4981 -7.1029 111° Southeast 496 571 33,500 -2,700 Descending FlightAware UK
05:09AM 52.4818 -7.0326 111° Southeast 496 571 33,500 3,720 Level FlightAware UK
05:09AM 52.5020 -7.0670 111° Southeast 550 633 35,000  Climbing FlightAware
05:10AM 52.4600 -6.9393 111° Southeast 496 571 33,500 -2,520 Descending FlightAware UK
05:10AM 52.4435 -6.8694 111° Southeast 494 568 33,500 3,300 Level FlightAware UK
05:10AM 52.4620 -6.8950 111° Southeast 551 634 35,000  Climbing FlightAware
05:10AM 52.4216 -6.7762 111° Southeast 494 568 33,500 -2,760 Descending FlightAware UK
05:11AM 52.4051 -6.7063 111° Southeast 494 568 33,500 3,600 Level FlightAware UK
05:11AM 52.4270 -6.7500 111° Southeast 552 635 35,000  Climbing FlightAware
05:11AM 52.3830 -6.6133 111° Southeast 494 568 33,500 -2,580 Descending FlightAware UK
05:11AM 52.3665 -6.5433 111° Southeast 492 566 33,500 3,180 Level FlightAware UK
05:11AM 52.3830 -6.5610 111° Southeast 552 635 35,000  Climbing FlightAware
05:12AM 52.3386 -6.4268 111° Southeast 492 566 33,500 -2,400 Descending FlightAware UK
05:12AM 52.3218 -6.3568 111° Southeast 492 566 33,500 4,500 Level FlightAware UK
05:12AM 52.3450 -6.4050 111° Southeast 554 638 35,000  Climbing FlightAware
05:12AM 52.3050 -6.2869 111° Southeast 492 566 33,500 -2,700 Descending FlightAware UK
05:13AM 52.2880 -6.2169 112° Southeast 494 568 33,500 3,060 Level FlightAware UK
05:13AM 52.3040 -6.2360 112° Southeast 554 638 35,000  Climbing FlightAware
05:13AM 52.2597 -6.1004 112° Southeast 494 568 33,500  Descending FlightAware UK
05:13AM 52.2660 -6.0800 112° Southeast 554 638 35,000  Climbing FlightAware
05:14AM 52.2257 -5.9597 112° Southeast 496 571 33,500 -2,760 Descending FlightAware UK
05:14AM 52.2087 -5.8899 112° Southeast 500 575 33,500 3,000 Level FlightAware UK
05:14AM 52.2260 -5.9090 112° Southeast 555 639 35,000  Climbing FlightAware
05:15AM 52.1893 -5.7692 112° Southeast 496 571 33,500 -2,520 Descending FlightAware UK
05:15AM 52.1801 -5.6954 101° East 496 571 33,500 4,080 Level FlightAware UK
05:15AM 52.2040 -5.7440 101° East 556 640 35,000  Climbing FlightAware
05:15AM 52.1683 -5.5971 101° East 500 575 33,500  Descending FlightAware UK
05:15AM 52.1870 -5.6130 101° East 556 640 35,000  Climbing FlightAware
05:16AM 52.1594 -5.5235 101° East 496 571 33,500 -6,000 Descending FlightAware UK
05:16AM 52.1533 -5.4746 101° East 496 571 33,500  Level FlightAware UK
05:16AM 52.1402 -5.3771 102° East 500 575 33,500 2,520 Level FlightAware UK
05:16AM 52.1590 -5.4020 102° East 554 638 35,000  Climbing FlightAware
05:17AM 52.1229 -5.2557 102° East 498 573 33,500 -2,460 Descending FlightAware UK
05:17AM 52.1121 -5.1831 104° East 500 575 33,500 4,260 Level FlightAware UK
05:17AM 52.1340 -5.2300 104° East 553 636 35,000  Climbing FlightAware
05:17AM 52.1013 -5.1106 104° East 500 575 33,500 -2,760 Descending FlightAware UK
05:18AM 52.0904 -5.0384 104° East 498 573 33,500 3,600 Level FlightAware UK
05:18AM 52.1100 -5.0700 104° East 552 635 35,000  Climbing FlightAware
05:18AM 52.0697 -4.9186 104° East 502 578 33,500  Descending FlightAware UK
05:18AM 52.0750 -4.9020 104° East 546 628 35,000  Climbing FlightAware
05:19AM 52.0277 -4.7615 104° East 504 580 33,500 -2,400 Descending FlightAware UK
05:19AM 52.0096 -4.6946 114° Southeast 502 578 33,500 4,500 Level FlightAware UK
05:19AM 52.0330 -4.7500 114° Southeast 543 625 35,000  Climbing FlightAware
05:19AM 51.9919 -4.6275 114° Southeast 496 571 33,500  Descending FlightAware UK
05:20AM 51.9935 -4.5983 114° Southeast 542 624 35,000  Climbing FlightAware ADS-B
05:20AM 51.9340 -4.4045 114° Southeast 496 571 33,500  Descending FlightAware UK
05:20AM 51.9490 -4.4290 114° Southeast 540 621 35,000 2,760 Climbing FlightAware
05:21AM 51.9248 -4.3342 112° Southeast 542 624 35,000 -1,980 Level FlightAware ADS-B
05:21AM 51.8769 -4.2085 112° Southeast 496 571 33,500  Descending FlightAware UK
05:21AM 51.8768 -4.2061 112° Southeast 542 624 35,000 3,060 Climbing FlightAware ADS-B
05:22AM 51.8557 -4.1576 125° Southeast 530 610 35,000 -1,320 Level FlightAware ADS-B
05:23AM 51.7612 -3.9372 125° Southeast 494 568 33,500  Descending FlightAware UK
05:23AM 51.7700 -3.9570 125° Southeast 528 608 35,000  Climbing FlightAware
05:23AM 51.7205 -3.8128 125° Southeast 492 566 33,500  Descending FlightAware UK
05:23AM 51.7330 -3.8130 125° Southeast 539 620 35,000  Climbing FlightAware
05:24AM 51.7059 -3.6705 125° Southeast 492 566 33,500  Descending FlightAware UK
05:24AM 51.7180 -3.6320 125° Southeast 541 623 35,000 2,100 Climbing FlightAware
05:25AM 51.7101 -3.5470 98° East 541 623 35,000 -2,460 Level FlightAware ADS-B
05:25AM 51.6852 -3.4315 98° East 492 566 33,500  Descending FlightAware UK
05:25AM 51.6971 -3.4236 98° East 540 621 35,000  Climbing FlightAware ADS-B
05:25AM 51.6727 -3.3133 98° East 494 568 33,500  Descending FlightAware UK
05:26AM 51.6844 -3.3023 98° East 540 621 35,000  Climbing FlightAware ADS-B
05:26AM 51.6615 -3.1941 98° East 492 566 33,500  Descending FlightAware UK
05:26AM 51.6736 -3.1752 98° East 541 623 35,000  Climbing FlightAware ADS-B
05:26AM 51.6526 -3.0747 98° East 492 566 33,500  Descending FlightAware UK
05:27AM 51.6633 -3.0410 98° East 541 623 35,000  Climbing FlightAware ADS-B
05:27AM 51.6422 -2.9310 98° East 494 568 33,500  Descending FlightAware UK
05:27AM 51.6540 -2.9211 98° East 540 621 35,000  Climbing FlightAware ADS-B
05:27AM 51.6335 -2.8122 98° East 492 566 33,500  Descending FlightAware UK
05:28AM 51.6438 -2.7907 98° East 540 621 35,000 1,860 Climbing FlightAware ADS-B
05:28AM 51.6335 -2.6637 97° East 540 621 35,000 -1,800 Level FlightAware ADS-B
05:29AM 51.6131 -2.5501 97° East 494 568 33,500  Descending FlightAware UK
05:29AM 51.6236 -2.5432 97° East 540 621 35,000 2,100 Climbing FlightAware ADS-B
05:29AM 51.6139 -2.4230 97° East 539 620 35,000  Level FlightAware ADS-B
05:30AM 51.6038 -2.3010 98° East 539 620 35,000  Level FlightAware ADS-B
05:30AM 51.5928 -2.1697 98° East 538 619 35,000  Level FlightAware ADS-B
05:31AM 51.5818 -2.0398 98° East 537 618 35,000 -1,620 Level FlightAware ADS-B
05:31AM 51.5618 -1.9104 98° East 492 566 33,500  Descending FlightAware UK
05:31AM 51.5708 -1.9111 98° East 538 619 35,000 2,280 Climbing FlightAware ADS-B
05:32AM 51.5603 -1.7905 98° East 537 618 35,000  Level FlightAware ADS-B
05:32AM 51.5500 -1.6714 98° East 536 617 35,000 -1,800 Level FlightAware ADS-B
05:33AM 51.5324 -1.5558 98° East 496 571 33,500  Descending FlightAware UK
05:33AM 51.5399 -1.5517 98° East 535 616 35,000  Climbing FlightAware ADS-B
05:33AM 51.5226 -1.4385 98° East 494 568 33,500  Descending FlightAware UK
05:33AM 51.5294 -1.4331 98° East 534 615 35,000  Climbing FlightAware ADS-B
05:34AM 51.5128 -1.3209 98° East 492 566 33,500  Descending FlightAware UK
05:34AM 51.5188 -1.3113 98° East 533 613 35,000  Climbing FlightAware ADS-B
05:34AM 51.5005 -1.1810 98° East 490 564 33,500  Descending FlightAware UK
05:34AM 51.5075 -1.1872 98° East 533 613 35,000 2,280 Climbing FlightAware ADS-B
05:35AM 51.4961 -1.0636 98° East 533 613 35,000 -1,920 Level FlightAware ADS-B
05:35AM 51.4818 -0.9707 98° East 494 568 33,500  Descending FlightAware UK
05:36AM 51.4848 -0.9432 98° East 532 612 35,000 1,920 Climbing FlightAware ADS-B
05:36AM 51.4735 -0.8224 98° East 531 611 35,000  Level FlightAware ADS-B
05:37AM 51.4620 -0.7034 99° East 530 610 35,000  Level FlightAware ADS-B
05:37AM 51.4505 -0.5851 99° East 529 609 35,000  Level FlightAware ADS-B
05:38AM 51.4392 -0.4692 99° East 528 608 35,000 -1,860 Level FlightAware ADS-B
05:38AM 51.4255 -0.3672 99° East 496 571 33,500  Descending FlightAware UK
05:38AM 51.4276 -0.3527 99° East 525 604 35,000 2,100 Climbing FlightAware ADS-B
05:39AM 51.4160 -0.2361 99° East 523 602 35,000 -1,680 Level FlightAware ADS-B
05:39AM 51.4006 -0.1170 99° East 488 562 33,500  Descending FlightAware UK
05:39AM 51.4041 -0.1201 99° East 524 603 35,000  Climbing FlightAware ADS-B
05:39AM 51.3914 -0.0250 99° East 490 564 33,500  Descending FlightAware UK
05:40AM 51.3919 0.0000 99° East 524 603 35,000 2,040 Climbing FlightAware ADS-B
05:40AM 51.3804 0.1151 99° East 525 604 35,000  Level FlightAware ADS-B
05:41AM 51.3682 0.2326 99° East 526 605 35,000  Level FlightAware ADS-B
05:41AM 51.3556 0.3542 99° East 526 605 35,000 -1,920 Level FlightAware ADS-B
05:41AM 51.3455 0.4337 99° East 492 566 33,500  Descending FlightAware UK
05:42AM 51.3425 0.4792 99° East 526 605 35,000 1,860 Climbing FlightAware ADS-B
05:42AM 51.3299 0.5966 100° East 526 605 35,000 -1,920 Level FlightAware ADS-B
05:42AM 51.3192 0.6863 100° East 496 571 33,500  Descending FlightAware UK
05:43AM 51.3167 0.7206 100° East 526 605 35,000  Climbing FlightAware ADS-B
05:43AM 51.3069 0.8005 100° East 496 571 33,500  Descending FlightAware UK
05:43AM 51.3038 0.8398 100° East 525 604 35,000 1,860 Climbing FlightAware ADS-B
05:44AM 51.2908 0.9583 100° East 524 603 35,000 -1,800 Level FlightAware ADS-B
05:44AM 51.2799 1.0516 100° East 494 568 33,500  Descending FlightAware UK
05:44AM 51.2760 1.0920 100° East 523 602 35,000  Climbing FlightAware
05:45AM 51.2626 1.2106 100° East 494 568 33,500  Descending FlightAware UK
05:45AM 51.2600 1.2390 100° East 523 602 35,000  Climbing FlightAware
05:45AM 51.2449 1.3703 100° East 490 564 33,500  Descending FlightAware UK
05:46AM 51.2410 1.4060 100° East 523 602 35,000  Climbing FlightAware
05:46AM 51.2298 1.5067 100° East 490 564 33,500  Descending FlightAware UK
05:46AM 51.2250 1.5470 100° East 525 604 35,000  Climbing FlightAware
05:47AM 51.2143 1.6431 100° East 490 564 33,500  Descending FlightAware UK
05:47AM 51.2090 1.6940 100° East 525 604 35,000  Climbing FlightAware
05:47AM 51.1959 1.8033 100° East 490 564 33,500  Descending FlightAware UK
05:48AM 51.1960 1.8030 100° East 526 605 35,000  Climbing FlightAware
05:48AM 51.1825 1.9173 100° East 492 566 33,500  Descending FlightAware UK
05:48AM 51.1790 1.9470 100° East 527 606 35,000  Climbing FlightAware
05:49AM 51.1636 2.0779 100° East 492 566 33,500  Descending FlightAware UK
05:49AM 51.1580 2.1270 100° East 527 606 35,000  Climbing FlightAware
05:49AM 51.1399 2.2838 100° East 490 564 33,500  Descending FlightAware UK
05:50AM 51.1400 2.2780 100° East 528 608 35,000  Climbing FlightAware
05:50AM 51.1288 2.3753 100° East 490 564 33,500  Descending FlightAware UK
05:50AM 51.1220 2.4310 100° East 529 609 35,000  Climbing FlightAware
05:51AM 51.1033 2.5808 100° East 490 564 33,500  Descending FlightAware UK
05:51AM 51.1000 2.6050 100° East 527 606 35,000  Climbing FlightAware
05:51AM 51.0871 2.6941 100° East 490 564 33,500  Descending FlightAware UK
05:52AM 51.0760 2.7540 100° East 525 604 35,000  Climbing FlightAware
05:52AM 51.0595 2.8501 100° East 488 562 33,500  Descending FlightAware UK
05:52AM 51.0510 2.8940 100° East 525 604 35,000 1,320 Climbing FlightAware
05:53AM 51.0190 3.0680 106° East 526 605 35,000 -1,080 Level FlightAware
05:54AM 50.9853 3.2503 106° East 494 568 33,500  Descending FlightAware UK
05:54AM 50.9920 3.2190 106° East 526 605 35,000  Climbing FlightAware
05:54AM 50.9689 3.3392 106° East 494 568 33,500 -2,160 Descending FlightAware UK
05:54AM 50.9562 3.4054 107° East 496 571 33,500 4,260 Level FlightAware UK
05:55AM 50.9610 3.3790 107° East 522 601 35,000 2,040 Climbing FlightAware
05:55AM 50.9300 3.5280 108° East 521 600 35,000  Level FlightAware
05:56AM 50.9000 3.6730 108° East 520 598 35,000 -1,440 Level FlightAware
05:56AM 50.8732 3.7960 108° East 492 566 33,500  Descending FlightAware UK
05:57AM 50.8660 3.8350 108° East 519 597 35,000  Climbing FlightAware
05:57AM 50.8414 3.9474 108° East 492 566 33,500  Descending FlightAware UK
05:57AM 50.8360 3.9780 108° East 518 596 35,000  Climbing FlightAware
05:58AM 50.8093 4.0983 108° East 492 566 33,500  Descending FlightAware UK
05:58AM 50.8020 4.1430 108° East 517 595 35,000 1,440 Climbing FlightAware
05:59AM 50.7710 4.2880 109° East 516 594 35,000 -1,320 Level FlightAware
05:59AM 50.7403 4.4216 109° East 492 566 33,500  Descending FlightAware UK
05:59AM 50.7410 4.4300 109° East 515 593 35,000  Climbing FlightAware
06:00AM 50.7172 4.5290 109° East 492 566 33,500  Descending FlightAware UK
06:00AM 50.7070 4.5890 109° East 515 593 35,000 1,320 Climbing FlightAware
06:01AM 50.6760 4.7340 109° East 514 592 35,000  Level FlightAware
06:01AM 50.6450 4.8790 109° East 513 590 35,000  Level FlightAware
06:02AM 50.6130 5.0280 109° East 512 589 35,000  Level FlightAware
06:03AM 50.5760 5.1910 110° East 512 589 35,000  Level FlightAware
06:04AM 50.5450 5.3340 109° East 512 589 35,000  Level FlightAware
06:04AM 50.5130 5.4730 110° East 512 589 35,000  Level FlightAware
06:05AM 50.4770 5.6370 109° East 512 589 35,000  Level FlightAware
06:06AM 50.4420 5.7750 112° Southeast 497 572 35,000  Level FlightAware
06:06AM 50.3910 5.8770 128° Southeast 483 556 35,000  Level FlightAware
06:07AM 50.3270 6.0070 128° Southeast 487 560 35,000  Level FlightAware
06:08AM 50.2740 6.1220 126° Southeast 486 559 35,000  Level FlightAware
06:09AM 50.2140 6.2520 126° Southeast 483 556 35,000  Level FlightAware
06:09AM 50.1670 6.3440 129° Southeast 480 552 35,000  Level FlightAware
06:10AM 50.0970 6.4800 129° Southeast 475 547 35,000  Level FlightAware
06:11AM 50.0380 6.5810 132° Southeast 474 545 35,000  Level FlightAware
06:12AM 49.9580 6.7190 132° Southeast 474 545 35,000  Level FlightAware
06:12AM 49.9080 6.8060 132° Southeast 474 545 35,000  Level FlightAware
06:13AM 49.8400 6.9250 132° Southeast 470 541 35,000  Level FlightAware
06:14AM 49.7830 7.0230 132° Southeast 470 541 35,000  Level FlightAware
06:14AM 49.7210 7.1290 132° Southeast 477 549 35,000  Level FlightAware
06:15AM 49.6540 7.2430 132° Southeast 479 551 35,000  Level FlightAware
06:16AM 49.5890 7.3520 133° Southeast 480 552 35,000  Level FlightAware
06:16AM 49.5310 7.4500 132° Southeast 481 554 35,000  Level FlightAware
06:17AM 49.4660 7.5580 133° Southeast 481 554 35,000  Level FlightAware
06:18AM 49.4070 7.6570 132° Southeast 479 551 35,000  Level FlightAware
06:19AM 49.3370 7.7720 133° Southeast 479 551 35,000  Level FlightAware
06:19AM 49.2750 7.8750 133° Southeast 477 549 35,000  Level FlightAware
06:20AM 49.2150 7.9730 133° Southeast 476 548 35,000  Level FlightAware
06:21AM 49.1560 8.0710 133° Southeast 475 547 35,000  Level FlightAware
06:21AM 49.0910 8.1750 134° Southeast 474 545 35,000  Level FlightAware
06:22AM 49.0250 8.2830 133° Southeast 473 544 35,000  Level FlightAware
06:23AM 48.9590 8.3870 134° Southeast 473 544 35,000  Level FlightAware
06:23AM 48.9060 8.4720 133° Southeast 469 540 35,000  Level FlightAware
06:24AM 48.8330 8.5880 134° Southeast 472 543 35,000  Level FlightAware
06:25AM 48.7660 8.6940 134° Southeast 469 540 35,000  Level FlightAware
06:26AM 48.7090 8.7860 133° Southeast 466 536 35,000  Level FlightAware
06:26AM 48.6440 8.8870 134° Southeast 464 534 35,000  Level FlightAware
06:27AM 48.5810 8.9860 134° Southeast 462 532 35,000  Level FlightAware
06:28AM 48.5190 9.0840 134° Southeast 462 532 35,000  Level FlightAware
06:28AM 48.4600 9.1750 134° Southeast 463 533 35,000  Level FlightAware
06:29AM 48.3920 9.2800 134° Southeast 464 534 35,000  Level FlightAware
06:30AM 48.3320 9.3740 134° Southeast 465 535 35,000  Level FlightAware
06:30AM 48.2600 9.4670 139° Southeast 458 527 35,000  Level FlightAware
06:31AM 48.1890 9.5440 144° Southeast 456 525 35,000  Level FlightAware
06:32AM 48.1120 9.6250 145° Southeast 455 524 35,000  Level FlightAware
06:33AM 48.0430 9.6980 145° Southeast 455 524 35,000  Level FlightAware
06:33AM 47.9650 9.7800 145° Southeast 455 524 35,000  Level FlightAware
06:34AM 47.8960 9.8520 145° Southeast 455 524 35,000  Level FlightAware
06:35AM 47.8280 9.9230 145° Southeast 455 524 35,000  Level FlightAware
06:35AM 47.7510 10.0040 145° Southeast 450 518 35,000  Level FlightAware
06:36AM 47.6800 10.0770 145° Southeast 450 518 35,000  Level FlightAware
06:37AM 47.6120 10.1460 146° Southeast 455 524 35,000  Level FlightAware
06:37AM 47.5400 10.2210 145° Southeast 453 521 35,000  Level FlightAware
06:38AM 47.4650 10.2970 146° Southeast 453 521 35,000  Level FlightAware
06:40AM 47.3050 10.4600 145° Southeast 456 525 35,000  Level FlightAware
06:40AM 47.2210 10.5450 145° Southeast 456 525 35,000  Level FlightAware
06:41AM 47.1530 10.6150 145° Southeast 465 535 35,000  Level FlightAware
06:42AM 47.0710 10.7020 144° Southeast 467 537 35,000  Level FlightAware
06:43AM 47.0050 10.7970 136° Southeast 480 552 35,000  Level FlightAware
06:43AM 46.9370 10.9030 133° Southeast 477 549 35,000  Level FlightAware
06:44AM 46.8760 10.9990 133° Southeast 479 551 35,000  Level FlightAware
06:45AM 46.8080 11.1030 134° Southeast 480 552 35,000  Level FlightAware
06:45AM 46.7450 11.2010 133° Southeast 488 562 35,000  Level FlightAware
06:46AM 46.6820 11.2990 133° Southeast 490 564 35,000  Level FlightAware
06:47AM 46.6160 11.4000 134° Southeast 488 562 35,000  Level FlightAware
06:47AM 46.5550 11.4940 133° Southeast 486 559 35,000  Level FlightAware
06:48AM 46.4860 11.5980 134° Southeast 483 556 35,000  Level FlightAware
06:49AM 46.4230 11.6930 134° Southeast 474 545 35,000  Level FlightAware
06:50AM 46.3610 11.7840 135° Southeast 472 543 35,000  Level FlightAware
06:50AM 46.2920 11.8870 134° Southeast 472 543 35,000  Level FlightAware
06:51AM 46.2320 11.9770 134° Southeast 471 542 35,000  Level FlightAware
06:52AM 46.1620 12.0810 134° Southeast 469 540 35,000  Level FlightAware
06:52AM 46.1030 12.1770 132° Southeast 475 547 35,000  Level FlightAware
06:53AM 46.0480 12.2760 129° Southeast 475 547 35,000  Level FlightAware
06:54AM 45.9870 12.3900 128° Southeast 475 547 35,000  Level FlightAware
06:54AM 45.9350 12.4890 127° Southeast 470 541 35,000  Level FlightAware
06:55AM 45.8740 12.6050 127° Southeast 469 540 35,000  Level FlightAware
06:56AM 45.8220 12.7050 127° Southeast 468 539 35,000  Level FlightAware
06:57AM 45.7680 12.8060 127° Southeast 467 537 35,000  Level FlightAware
06:57AM 45.7120 12.9140 127° Southeast 468 539 35,000  Level FlightAware
06:58AM 45.6570 13.0160 128° Southeast 468 539 35,000  Level FlightAware
06:59AM 45.5980 13.1270 127° Southeast 466 536 35,000  Level FlightAware
06:59AM 45.5450 13.2260 127° Southeast 470 541 35,000  Level FlightAware
07:00AM 45.4920 13.3230 128° Southeast 469 540 35,000  Level FlightAware
07:01AM 45.4310 13.4330 128° Southeast 468 539 35,000  Level FlightAware
07:01AM 45.3790 13.5280 128° Southeast 462 532 35,000  Level FlightAware
07:02AM 45.3190 13.6390 128° Southeast 462 532 35,000  Level FlightAware
07:03AM 45.2670 13.7360 127° Southeast 466 536 35,000  Level FlightAware
07:04AM 45.2120 13.8330 129° Southeast 465 535 35,000  Level FlightAware
07:04AM 45.1520 13.9390 129° Southeast 465 535 35,000  Level FlightAware
07:05AM 45.1040 14.0260 128° Southeast 464 534 35,000  Level FlightAware
07:06AM 45.0260 14.1650 128° Southeast 464 534 35,000  Level FlightAware
07:07AM 44.9670 14.2710 128° Southeast 463 533 35,000  Level FlightAware
07:07AM 44.9120 14.3690 128° Southeast 462 532 35,000  Level FlightAware
07:08AM 44.8590 14.4610 129° Southeast 463 533 35,000  Level FlightAware
07:09AM 44.8090 14.5500 128° Southeast 462 532 35,000  Level FlightAware
07:09AM 44.7430 14.6660 129° Southeast 464 534 35,000  Level FlightAware
07:10AM 44.6880 14.7610 129° Southeast 465 535 35,000  Level FlightAware
07:11AM 44.6290 14.8630 129° Southeast 465 535 35,000  Level FlightAware
07:12AM 44.5750 14.9570 129° Southeast 465 535 35,000  Level FlightAware
07:12AM 44.5180 15.0560 129° Southeast 465 535 35,000  Level FlightAware
07:13AM 44.4610 15.1550 129° Southeast 466 536 35,000  Level FlightAware
07:14AM 44.4060 15.2480 130° Southeast 466 536 35,000  Level FlightAware
07:14AM 44.3480 15.3480 129° Southeast 466 536 35,000  Level FlightAware
07:15AM 44.2890 15.4500 129° Southeast 466 536 35,000  Level FlightAware
07:16AM 44.2260 15.5570 129° Southeast 462 532 35,000  Level FlightAware
07:16AM 44.1730 15.6480 129° Southeast 462 532 35,000  Level FlightAware
07:17AM 44.1170 15.7430 129° Southeast 462 532 35,000  Level FlightAware
07:18AM 44.0560 15.8470 129° Southeast 462 532 35,000  Level FlightAware
07:18AM 44.0030 15.9360 130° Southeast 462 532 35,000  Level FlightAware
07:19AM 43.9390 16.0450 129° Southeast 461 531 35,000  Level FlightAware
07:20AM 43.8770 16.1480 130° Southeast 462 532 35,000  Level FlightAware
07:21AM 43.8220 16.2390 130° Southeast 460 529 35,000  Level FlightAware
07:21AM 43.7620 16.3400 129° Southeast 460 529 35,000  Level FlightAware
07:22AM 43.7060 16.4340 129° Southeast 461 531 35,000  Level FlightAware
07:23AM 43.6500 16.5260 130° Southeast 461 531 35,000  Level FlightAware
07:23AM 43.5870 16.6310 130° Southeast 462 532 35,000  Level FlightAware
07:24AM 43.5320 16.7220 130° Southeast 464 534 35,000  Level FlightAware
07:25AM 43.4690 16.8250 130° Southeast 462 532 35,000  Level FlightAware
07:26AM 43.4130 16.9170 130° Southeast 461 531 35,000  Level FlightAware
07:26AM 43.3580 17.0070 130° Southeast 459 528 35,000  Level FlightAware
07:27AM 43.2970 17.1070 130° Southeast 457 526 35,000  Level FlightAware
07:28AM 43.2420 17.1960 130° Southeast 458 527 35,000  Level FlightAware
07:28AM 43.1860 17.2880 130° Southeast 459 528 35,000  Level FlightAware
07:29AM 43.1240 17.3880 130° Southeast 460 529 35,000  Level FlightAware
07:30AM 43.0680 17.4790 130° Southeast 462 532 35,000  Level FlightAware
07:30AM 43.0060 17.5800 130° Southeast 472 543 35,000  Level FlightAware
07:31AM 42.9500 17.6690 131° Southeast 473 544 35,000  Level FlightAware
07:32AM 42.8860 17.7730 130° Southeast 476 548 35,000  Level FlightAware
07:33AM 42.8270 17.8670 131° Southeast 476 548 35,000  Level FlightAware
07:33AM 42.7700 17.9580 130° Southeast 475 547 35,000  Level FlightAware
07:34AM 42.7060 18.0600 130° Southeast 476 548 35,000  Level FlightAware
07:35AM 42.6460 18.1550 131° Southeast 476 548 35,000  Level FlightAware
07:35AM 42.5840 18.2530 131° Southeast 475 547 35,000  Level FlightAware
07:36AM 42.5230 18.3400 134° Southeast 473 544 35,000  Level FlightAware
07:37AM 42.4620 18.4230 135° Southeast 474 545 35,000  Level FlightAware
07:37AM 42.3890 18.5170 136° Southeast 471 542 35,000  Level FlightAware
07:38AM 42.3250 18.5990 137° Southeast 471 542 35,000 180 Level FlightAware
07:39AM 42.2580 18.6850 136° Southeast 470 541 35,300 960 Climbing FlightAware
07:40AM 42.1960 18.7650 136° Southeast 464 534 36,400 1,260 Climbing FlightAware
07:40AM 42.1310 18.8490 136° Southeast 462 532 37,000 420 Climbing FlightAware
07:41AM 42.0600 18.9390 137° Southeast 460 529 37,000  Level FlightAware
07:42AM 41.9980 19.0190 136° Southeast 460 529 37,000  Level FlightAware
07:42AM 41.9350 19.0990 137° Southeast 460 529 37,000  Level FlightAware
07:43AM 41.8680 19.1840 137° Southeast 462 532 37,000  Level FlightAware
07:44AM 41.8060 19.2630 136° Southeast 464 534 37,000  Level FlightAware
07:44AM 41.7340 19.3540 137° Southeast 466 536 37,000  Level FlightAware
07:45AM 41.6700 19.4330 137° Southeast 467 537 37,000  Level FlightAware
07:46AM 41.6000 19.5200 137° Southeast 469 540 37,000  Level FlightAware
07:46AM 41.5540 19.5780 137° Southeast 471 542 37,000  Level FlightAware
07:47AM 41.4730 19.6790 137° Southeast 472 543 37,000  Level FlightAware
07:48AM 41.4020 19.7690 136° Southeast 475 547 37,000  Level FlightAware
07:49AM 41.3430 19.8510 134° Southeast 476 548 37,000  Level FlightAware
07:49AM 41.2710 19.9500 134° Southeast 476 548 37,000  Level FlightAware
07:50AM 41.2080 20.0350 135° Southeast 475 547 37,000  Level FlightAware
07:51AM 41.1480 20.1150 135° Southeast 475 547 37,000  Level FlightAware
07:51AM 41.0800 20.2060 135° Southeast 475 547 37,000  Level FlightAware
07:52AM 41.0180 20.2900 134° Southeast 476 548 37,000  Level FlightAware
07:53AM 40.9550 20.3730 135° Southeast 476 548 37,000  Level FlightAware
07:54AM 40.8830 20.4680 135° Southeast 476 548 37,000  Level FlightAware
07:54AM 40.8210 20.5500 135° Southeast 476 548 37,000  Level FlightAware
07:55AM 40.7520 20.6410 135° Southeast 478 550 37,000  Level FlightAware
07:56AM 40.6900 20.7220 135° Southeast 479 551 37,000  Level FlightAware
07:56AM 40.6560 20.7670 135° Southeast 480 552 37,000  Level FlightAware
07:57AM 40.5880 20.8550 135° Southeast 481 554 37,000  Level FlightAware
07:58AM 40.5240 20.9370 136° Southeast 481 554 37,000  Level FlightAware
07:58AM 40.4530 21.0240 137° Southeast 482 555 37,000  Level FlightAware
07:59AM 40.3980 21.0890 138° Southeast 482 555 37,000  Level FlightAware
08:00AM 40.2850 21.2250 137° Southeast 484 557 37,000  Level FlightAware
08:01AM 40.2160 21.3090 137° Southeast 484 557 37,000  Level FlightAware
08:01AM 40.1600 21.3770 137° Southeast 484 557 37,000  Level FlightAware
08:02AM 40.0530 21.5030 138° Southeast 491 565 37,000  Level FlightAware
08:03AM 39.9760 21.5950 138° Southeast 492 566 37,000  Level FlightAware
08:04AM 39.9080 21.6760 138° Southeast 494 568 37,000  Level FlightAware
08:04AM 39.8340 21.7630 138° Southeast 494 568 37,000  Level FlightAware
08:05AM 39.7640 21.8440 138° Southeast 494 568 37,000  Level FlightAware
08:06AM 39.6960 21.9220 139° Southeast 493 567 37,000  Level FlightAware
08:06AM 39.6180 22.0120 138° Southeast 492 566 37,000  Level FlightAware
08:07AM 39.5500 22.0900 138° Southeast 490 564 37,000  Level FlightAware
08:08AM 39.4740 22.1770 139° Southeast 489 563 37,000  Level FlightAware
08:08AM 39.4070 22.2540 138° Southeast 489 563 37,000  Level FlightAware
08:09AM 39.3400 22.3310 138° Southeast 488 562 37,000  Level FlightAware
08:10AM 39.2620 22.4200 139° Southeast 486 559 37,000  Level FlightAware
08:11AM 39.1930 22.4980 139° Southeast 486 559 37,000  Level FlightAware
08:11AM 39.1210 22.5800 139° Southeast 487 560 37,000  Level FlightAware
08:12AM 39.0520 22.6570 139° Southeast 488 562 37,000  Level FlightAware
08:13AM 38.9840 22.7340 139° Southeast 490 564 37,000  Level FlightAware
08:13AM 38.9050 22.8240 138° Southeast 492 566 37,000  Level FlightAware
08:14AM 38.8350 22.9010 139° Southeast 494 568 37,000  Level FlightAware
08:15AM 38.7610 22.9850 138° Southeast 496 571 37,000  Level FlightAware
08:15AM 38.6910 23.0620 139° Southeast 499 574 37,000  Level FlightAware
08:16AM 38.6200 23.1400 139° Southeast 501 577 37,000  Level FlightAware
08:17AM 38.5390 23.2290 139° Southeast 502 578 37,000  Level FlightAware
08:18AM 38.4700 23.3060 139° Southeast 504 580 37,000  Level FlightAware
08:18AM 38.3920 23.3920 139° Southeast 506 582 37,000  Level FlightAware
08:19AM 38.3210 23.4700 139° Southeast 507 583 37,000  Level FlightAware
08:20AM 38.2380 23.5610 139° Southeast 509 586 37,000  Level FlightAware
08:20AM 38.1690 23.6360 139° Southeast 511 588 37,000  Level FlightAware
08:21AM 38.0970 23.7150 139° Southeast 512 589 37,000  Level FlightAware
08:22AM 38.0140 23.8060 139° Southeast 512 589 37,000  Level FlightAware
08:22AM 37.9430 23.8840 139° Southeast 512 589 37,000  Level FlightAware
08:23AM 37.8630 23.9700 140° Southeast 512 589 37,000  Level FlightAware
08:24AM 37.8020 24.0620 130° Southeast 509 586 37,000  Level FlightAware
08:25AM 37.7520 24.1600 123° Southeast 509 586 37,000  Level FlightAware
08:25AM 37.6940 24.2780 122° Southeast 509 586 37,000  Level FlightAware
08:26AM 37.6430 24.3790 123° Southeast 508 585 37,000  Level FlightAware
08:27AM 37.5940 24.4760 122° Southeast 507 583 37,000  Level FlightAware
08:27AM 37.5370 24.5870 123° Southeast 506 582 37,000  Level FlightAware
08:28AM 37.4870 24.6860 122° Southeast 506 582 37,000  Level FlightAware
08:29AM 37.4360 24.7840 123° Southeast 506 582 37,000  Level FlightAware
08:29AM 37.3780 24.8980 123° Southeast 505 581 37,000  Level FlightAware
08:30AM 37.3260 24.9970 123° Southeast 506 582 37,000  Level FlightAware
08:31AM 37.2700 25.1050 123° Southeast 507 583 37,000  Level FlightAware
08:32AM 37.2190 25.2030 123° Southeast 507 583 37,000  Level FlightAware
08:32AM 37.1600 25.3160 123° Southeast 507 583 37,000  Level FlightAware
08:33AM 37.1090 25.4160 123° Southeast 508 585 37,000  Level FlightAware
08:34AM 37.0580 25.5130 123° Southeast 506 582 37,000  Level FlightAware
08:34AM 37.0010 25.6230 123° Southeast 505 581 37,000  Level FlightAware
08:35AM 36.9500 25.7200 123° Southeast 504 580 37,000  Level FlightAware
08:36AM 36.8910 25.8320 123° Southeast 504 580 37,000  Level FlightAware
08:36AM 36.8520 25.9070 123° Southeast 505 581 37,000  Level FlightAware
08:37AM 36.7900 26.0250 123° Southeast 505 581 37,000  Level FlightAware
08:38AM 36.7300 26.1390 123° Southeast 506 582 37,000  Level FlightAware
08:39AM 36.6830 26.2280 123° Southeast 507 583 37,000  Level FlightAware
08:39AM 36.6220 26.3440 123° Southeast 506 582 37,000  Level FlightAware
08:40AM 36.5710 26.4400 123° Southeast 506 582 37,000  Level FlightAware
08:41AM 36.5130 26.5490 123° Southeast 507 583 37,000  Level FlightAware
08:41AM 36.4610 26.6460 124° Southeast 506 582 37,000  Level FlightAware
08:42AM 36.4030 26.7560 123° Southeast 504 580 37,000  Level FlightAware
08:43AM 36.3610 26.8330 124° Southeast 503 579 37,000  Level FlightAware
08:44AM 36.2840 26.9790 123° Southeast 502 578 37,000  Level FlightAware
08:44AM 36.2290 27.0790 124° Southeast 499 574 37,000  Level FlightAware
08:45AM 36.1720 27.1850 124° Southeast 499 574 37,000  Level FlightAware
08:46AM 36.1210 27.2800 124° Southeast 500 575 37,000  Level FlightAware
08:46AM 36.0740 27.3680 123° Southeast 500 575 37,000  Level FlightAware
08:47AM 36.0310 27.4500 123° Southeast 500 575 37,000  Level FlightAware
08:48AM 35.9780 27.5520 123° Southeast 500 575 37,000  Level FlightAware
08:49AM 35.9120 27.6650 126° Southeast 499 574 37,000  Level FlightAware
08:49AM 35.8690 27.7470 123° Southeast 499 574 37,000  Level FlightAware
08:50AM 35.8050 27.8590 125° Southeast 499 574 37,000  Level FlightAware
08:51AM 35.7430 27.9720 124° Southeast 501 577 37,000  Level FlightAware
08:51AM 35.6860 28.0760 124° Southeast 502 578 37,000  Level FlightAware
08:52AM 35.6330 28.1710 124° Southeast 504 580 37,000  Level FlightAware
08:53AM 35.5770 28.2730 124° Southeast 503 579 37,000  Level FlightAware
08:54AM 35.5160 28.3830 124° Southeast 503 579 37,000  Level FlightAware
08:54AM 35.4630 28.4780 124° Southeast 503 579 37,000  Level FlightAware
08:55AM 35.4100 28.5730 124° Southeast 503 579 37,000  Level FlightAware
08:56AM 35.3550 28.6730 124° Southeast 503 579 37,000  Level FlightAware
08:56AM 35.3010 28.7700 124° Southeast 504 580 37,000  Level FlightAware
08:57AM 35.2390 28.8790 125° Southeast 503 579 37,000  Level FlightAware
08:58AM 35.1870 28.9720 124° Southeast 504 580 37,000  Level FlightAware
08:59AM 35.1200 29.0920 124° Southeast 503 579 37,000  Level FlightAware
08:59AM 35.0760 29.1720 124° Southeast 503 579 37,000  Level FlightAware
09:00AM 35.0040 29.2970 125° Southeast 503 579 37,000  Level FlightAware
09:01AM 34.9550 29.3850 124° Southeast 503 579 37,000  Level FlightAware
09:01AM 34.9110 29.4650 124° Southeast 503 579 37,000  Level FlightAware
09:02AM 34.8670 29.5450 124° Southeast 503 579 37,000  Level FlightAware
09:03AM 34.8110 29.6450 124° Southeast 503 579 37,000  Level FlightAware
09:04AM 34.7670 29.7240 124° Southeast 503 579 37,000  Level FlightAware
09:04AM 34.7230 29.8040 124° Southeast 503 579 37,000  Level FlightAware
09:05AM 34.6790 29.8840 124° Southeast 503 579 37,000  Level FlightAware
09:06AM 34.6340 29.9640 124° Southeast 503 579 37,000  Level FlightAware
09:06AM 34.5790 30.0630 124° Southeast 503 579 37,000  Level FlightAware
09:07AM 34.5350 30.1430 124° Southeast 503 579 37,000  Level FlightAware
09:08AM 34.4910 30.2230 124° Southeast 503 579 37,000  Level FlightAware
09:08AM 34.4460 30.3020 125° Southeast 503 579 37,000  Level FlightAware
09:09AM 34.4020 30.3820 124° Southeast 503 579 37,000  Level FlightAware
09:10AM 34.3470 30.4810 124° Southeast 503 579 37,000  Level FlightAware
09:11AM 34.2380 30.7870 113° Southeast 494 568 37,000  Level FlightAware
09:11AM 34.1990 30.8680 120° Southeast 494 568 37,000  Level FlightAware
09:12AM 34.1600 30.9490 120° Southeast 494 568 37,000  Level FlightAware
09:13AM 34.0950 31.0800 121° Southeast 496 571 37,000  Level FlightAware
09:13AM 34.0400 31.1910 121° Southeast 495 570 37,000  Level FlightAware
09:14AM 33.9900 31.2940 120° Southeast 496 571 37,000  Level FlightAware
09:15AM 33.9460 31.3860 120° Southeast 496 571 37,000  Level FlightAware
09:15AM 33.8890 31.5000 121° Southeast 498 573 37,000  Level FlightAware
09:16AM 33.8330 31.6160 120° Southeast 497 572 37,000  Level FlightAware
09:17AM 33.7800 31.7220 121° Southeast 496 571 37,000  Level FlightAware
09:18AM 33.7330 31.8170 121° Southeast 495 570 37,000  Level FlightAware
09:18AM 33.6770 31.9280 121° Southeast 495 570 37,000  Level FlightAware
09:19AM 33.6340 32.0130 121° Southeast 494 568 37,000  Level FlightAware
09:20AM 33.5840 32.1140 121° Southeast 493 567 37,000  Level FlightAware
09:21AM 33.5290 32.2240 121° Southeast 494 568 37,000  Level FlightAware
09:21AM 33.4840 32.3150 121° Southeast 493 567 37,000  Level FlightAware
09:22AM 33.4310 32.4200 121° Southeast 493 567 37,000  Level FlightAware
09:23AM 33.3900 32.5010 121° Southeast 492 566 37,000 -360 Level FlightAware
09:23AM 33.3290 32.6190 122° Southeast 493 567 36,500 -1,320 Descending FlightAware
09:24AM 33.2810 32.7130 121° Southeast 484 557 35,100 -1,440 Descending FlightAware
09:25AM 33.2380 32.7960 122° Southeast 478 550 34,600 -1,920 Descending FlightAware
09:25AM 33.1970 32.8750 122° Southeast 460 529 32,700 -2,580 Descending FlightAware
09:26AM 33.1410 32.9820 122° Southeast 449 517 31,000 -2,100 Descending FlightAware
09:27AM 33.0970 33.0670 122° Southeast 438 504 29,600 -2,100 Descending FlightAware
09:28AM 33.0500 33.1580 122° Southeast 426 490 28,100 -2,220 Descending FlightAware
09:28AM 33.0060 33.2410 122° Southeast 421 484 26,300 -2,580 Descending FlightAware
09:29AM 32.9660 33.3160 122° Southeast 413 475 24,700 -2,160 Descending FlightAware
09:30AM 32.9280 33.3900 121° Southeast 394 453 23,600 -1,620 Descending FlightAware
09:30AM 32.8830 33.4750 122° Southeast 376 433 22,300 -1,680 Descending FlightAware
09:31AM 32.8440 33.5490 122° Southeast 362 417 21,100 -1,740 Descending FlightAware
09:32AM 32.8050 33.6230 122° Southeast 357 411 19,900 -1,680 Descending FlightAware
09:32AM 32.7690 33.6910 122° Southeast 367 422 18,800 -1,680 Descending FlightAware
09:33AM 32.7330 33.7590 122° Southeast 352 405 17,700 -1,680 Descending FlightAware
09:34AM 32.6940 33.8320 122° Southeast 338 389 16,500 -1,560 Descending FlightAware
09:35AM 32.6570 33.9000 123° Southeast 340 391 15,400 -1,500 Descending FlightAware
09:35AM 32.6220 33.9640 123° Southeast 338 389 14,400 -1,500 Descending FlightAware
09:36AM 32.5900 34.0220 123° Southeast 327 376 13,400 -1,500 Descending FlightAware
09:37AM 32.5520 34.0930 122° Southeast 314 361 12,300 -1,440 Descending FlightAware
09:37AM 32.5180 34.1500 125° Southeast 324 373 11,400 -1,380 Descending FlightAware
09:38AM 32.4710 34.2050 135° Southeast 309 356 10,400 -960 Descending FlightAware
09:39AM 32.4340 34.2500 134° Southeast 281 323 10,100 -780 Descending FlightAware
09:39AM 32.4100 34.2780 135° Southeast 276 318 9,600 -1,200 Descending FlightAware
09:40AM 32.3830 34.3100 135° Southeast 276 318 9,000 -1,080 Descending FlightAware
09:40AM 32.3700 34.3250 136° Southeast 276 318 8,800 -480 Descending FlightAware
09:41AM 32.3390 34.3600 136° Southeast 275 316 8,600 -240 Descending FlightAware
09:41AM 32.3240 34.3780 135° Southeast 275 316 8,600  Level FlightAware
09:41AM 32.3000 34.4040 138° Southeast 275 316 8,600  Level FlightAware
09:42AM 32.2850 34.4220 135° Southeast 275 316 8,600  Level FlightAware
09:42AM 32.2690 34.4400 136° Southeast 275 316 8,600  Level FlightAware
09:45AM 32.0611 34.7557 115° Southeast  Level FlightAware Approximate
09:46AM 32.0000 34.8667 125° Southeast  Level FlightAware Approximate
09:47AM 32.0095 34.8769 125° Southeast  Level Estimated
09:48AM 32.0095 34.8769 125° Southeast  Level Estimated
09:49AM 32.0095 34.8769 125° Southeast  Level Estimated
09:50AM 32.0095 34.8769 125° Southeast  Level Estimated
09:51AM 32.0095 34.8769 125° Southeast  Level Estimated
09:52AM 32.0095 34.8769 125° Southeast  Level Estimated
09:53AM 32.0095 34.8769 125° Southeast  Level Estimated